ドレスデン の空港の天気 - METARとTAF

ドレスデン空港 ( EDDC / DRS ) - ドイツ ドレスデン
飛行場実況気象(Metar)
観測時間09/25 23:20 CEST (09/25 21:20 UTC)
風向・風速南西 2m/s
視程10km以上
天気現象
少しの雲 雲底高度 1370m
気温12℃
湿度88%
気圧1009hPa
METAREDDC 252120Z AUTO 22004KT 9999 FEW045 12/10 Q1009
過去の天気等 Google飛行場航空写真 Wunderground天気予報

過去48時間のMETAR

飛行場予報(TAF)
発表時間: 9/25 19:00 CEST (9/25 17:00 UTC)
予報対象時間: 25日20時 CEST ~ 26日20時 CEST
風向・風速西北西 2m/s
視程10km以上
全天の4割程度の雲 雲底高度 1370m
25日23時 CEST ~ 26日3時 CEST に 確率 30% で一時的に
風向・風速北 3m/s
視程4000m
天気現象しゅう雨
全天の8割程度の積乱雲 雲底高度 610m
26日3時 CEST ~ 26日6時 CEST に徐々に
全天の8割程度の雲 雲底高度 400m
26日3時 CEST ~ 26日10時 CEST に一時的に
全天の8割程度の雲 雲底高度 240m
26日3時 CEST ~ 26日9時 CEST に 確率 30% で一時的に
視程2500m
天気現象弱い雨霧雨
全天の8割程度の雲 雲底高度 120m
26日9時 CEST ~ 26日12時 CEST に徐々に
全天の4割程度の雲 雲底高度 610m
26日11時 CEST ~ 26日13時 CEST に徐々に
風向・風速南 3m/s
TAF EDDC 251700Z 2518/2618 30004KT 9999 SCT045
PROB30 TEMPO 2521/2601 36006KT 4000 SHRA BKN020CB
BECMG 2601/2604 BKN013
TEMPO 2601/2608 BKN008
PROB30 TEMPO 2601/2607 2500 -RADZ BKN004
BECMG 2607/2610 SCT020
BECMG 2609/2611 18006KT